createdAt,value
2022-09-15T00:02:22.481Z,97171.75
2022-09-15T00:04:49.452Z,97172.27
2022-09-15T00:07:17.209Z,97174.32
2022-09-15T00:09:43.946Z,97171.86
2022-09-15T00:12:10.722Z,97170.48
2022-09-15T00:14:37.592Z,97160.84
2022-09-15T00:17:04.437Z,97164.27
2022-09-15T00:19:31.304Z,97160.82
2022-09-15T00:21:58.158Z,97161.71
2022-09-15T00:24:24.912Z,97155.61
2022-09-15T00:26:51.778Z,97156.69
2022-09-15T00:29:18.969Z,97155.37
2022-09-15T00:31:45.741Z,97149.10
2022-09-15T00:34:14.155Z,97145.80
2022-09-15T00:36:41.031Z,97144.19
2022-09-15T00:39:07.880Z,97146.08
2022-09-15T00:41:34.669Z,97144.79
2022-09-15T00:44:05.028Z,97136.66
2022-09-15T00:46:34.724Z,97136.17
2022-09-15T00:49:17.745Z,97130.83
2022-09-15T00:51:49.300Z,97127.41
2022-09-15T00:54:20.299Z,97125.33
2022-09-15T00:56:49.562Z,97126.43
2022-09-15T00:59:20.767Z,97120.77
2022-09-15T01:01:55.246Z,97122.33
2022-09-15T01:04:22.378Z,97114.46
2022-09-15T01:06:55.554Z,97114.20
2022-09-15T01:09:29.678Z,97109.98
2022-09-15T01:11:56.951Z,97104.36
2022-09-15T01:14:23.783Z,97101.34
2022-09-15T01:16:59.179Z,97100.02
2022-09-15T01:19:42.808Z,97095.84
2022-09-15T01:22:32.938Z,97095.77
2022-09-15T01:25:22.933Z,97102.77
2022-09-15T01:28:22.893Z,97094.58
2022-09-15T01:31:00.438Z,97088.05
2022-09-15T01:33:34.628Z,97087.44
2022-09-15T01:36:05.566Z,97086.20
2022-09-15T01:38:55.944Z,97079.17
2022-09-15T01:41:30.138Z,97080.42
2022-09-15T01:44:15.212Z,97078.08
2022-09-15T01:46:47.283Z,97084.12
2022-09-15T01:49:19.484Z,97080.98
2022-09-15T01:51:48.602Z,97081.79
2022-09-15T01:54:19.472Z,97076.98
2022-09-15T01:56:46.533Z,97077.53
2022-09-15T01:59:13.424Z,97070.33
2022-09-15T02:01:49.822Z,97071.40
2022-09-15T02:04:27.967Z,97073.40
2022-09-15T02:07:02.604Z,97071.19
2022-09-15T02:09:36.999Z,97071.45
2022-09-15T02:12:20.748Z,97070.84
2022-09-15T02:15:08.170Z,97069.33
2022-09-15T02:17:39.140Z,97068.80
2022-09-15T02:20:16.160Z,97063.94
2022-09-15T02:22:48.852Z,97057.35
2022-09-15T02:25:22.017Z,97048.72
2022-09-15T02:27:55.165Z,97043.05
2022-09-15T02:30:22.612Z,97044.45
2022-09-15T02:32:56.331Z,97040.02
2022-09-15T02:35:26.092Z,97035.55
2022-09-15T02:37:54.613Z,97034.15
2022-09-15T02:40:22.593Z,97036.95
2022-09-15T02:42:56.075Z,97040.14
2022-09-15T02:45:24.901Z,97040.73
2022-09-15T02:47:51.743Z,97039.59
2022-09-15T02:50:20.531Z,97040.02
2022-09-15T02:52:47.264Z,97043.36
2022-09-15T02:55:14.084Z,97035.36
2022-09-15T02:57:40.886Z,97036.49
2022-09-15T03:00:13.968Z,97035.64
2022-09-15T03:02:42.263Z,97032.39
2022-09-15T03:05:10.538Z,97028.73
2022-09-15T03:07:38.608Z,97018.86
2022-09-15T03:10:07.434Z,97017.95
2022-09-15T03:12:39.985Z,97024.64
2022-09-15T03:15:08.907Z,97016.36
2022-09-15T03:17:37.339Z,97019.05
2022-09-15T03:20:06.132Z,97021.42
2022-09-15T03:22:32.939Z,97024.17
2022-09-15T03:24:59.693Z,97021.98
2022-09-15T03:27:27.051Z,97020.35
2022-09-15T03:29:54.112Z,97017.88
2022-09-15T03:32:20.881Z,97011.20
2022-09-15T03:34:47.661Z,97011.14
2022-09-15T03:37:14.560Z,97009.77
2022-09-15T03:39:41.412Z,97004.91
2022-09-15T03:42:08.214Z,97001.65
2022-09-15T03:44:35.929Z,97006.73
2022-09-15T03:47:04.080Z,97010.50
2022-09-15T03:49:30.892Z,97013.52
2022-09-15T03:51:58.959Z,97014.07
2022-09-15T03:54:26.707Z,97006.36
2022-09-15T03:56:53.677Z,97006.18
2022-09-15T03:59:20.886Z,97000.30
2022-09-15T04:01:49.430Z,97002.30
2022-09-15T04:04:17.586Z,97004.45
2022-09-15T04:06:44.988Z,97007.20
2022-09-15T04:09:12.057Z,97003.91
2022-09-15T04:11:40.908Z,97009.59
2022-09-15T04:14:07.741Z,97005.10
2022-09-15T04:16:34.625Z,97010.35
2022-09-15T04:19:01.641Z,97008.79
2022-09-15T04:21:28.473Z,97009.92
2022-09-15T04:23:55.464Z,97005.88
2022-09-15T04:26:27.726Z,97010.69
2022-09-15T04:28:54.604Z,97011.34
2022-09-15T04:31:21.499Z,97011.23
2022-09-15T04:33:48.397Z,97012.63
2022-09-15T04:36:19.417Z,97008.89
2022-09-15T04:38:46.414Z,97009.52
2022-09-15T04:41:14.642Z,97009.27
2022-09-15T04:43:43.372Z,97008.41
2022-09-15T04:46:11.478Z,97012.25
2022-09-15T04:48:38.346Z,97011.80
2022-09-15T04:51:08.353Z,97009.92
2022-09-15T04:53:35.832Z,97004.04
2022-09-15T04:56:05.581Z,97001.60
2022-09-15T04:58:38.022Z,96999.71
2022-09-15T05:01:10.616Z,96993.47
2022-09-15T05:03:38.248Z,96993.52
2022-09-15T05:06:07.183Z,96988.55
2022-09-15T05:08:33.934Z,96991.64
2022-09-15T05:11:02.380Z,96993.84
2022-09-15T05:13:29.406Z,96994.88
2022-09-15T05:15:56.248Z,96997.56
2022-09-15T05:18:23.024Z,96996.36
2022-09-15T05:20:49.767Z,96994.55
2022-09-15T05:23:16.568Z,96990.48
2022-09-15T05:25:43.410Z,96991.77
2022-09-15T05:28:10.157Z,96998.48
2022-09-15T05:30:44.082Z,97000.48
2022-09-15T05:33:11.346Z,96999.78
2022-09-15T05:35:38.114Z,96997.23
2022-09-15T05:38:04.866Z,96999.29
2022-09-15T05:40:33.273Z,96997.45
2022-09-15T05:43:00.002Z,96999.46
2022-09-15T05:45:26.896Z,96997.23
2022-09-15T05:47:54.035Z,96998.38
2022-09-15T05:50:20.834Z,97001.09
2022-09-15T05:52:51.584Z,97003.23
2022-09-15T05:55:18.615Z,97007.83
2022-09-15T05:57:45.357Z,97008.63
2022-09-15T06:00:12.939Z,97010.95
2022-09-15T06:02:40.041Z,97013.38
2022-09-15T06:05:07.133Z,97012.36
2022-09-15T06:07:34.254Z,97015.60
2022-09-15T06:10:00.996Z,97013.40
2022-09-15T06:12:28.173Z,97013.89
2022-09-15T06:14:54.975Z,97015.50
2022-09-15T06:17:23.266Z,97016.14
2022-09-15T06:19:50.009Z,97016.46
2022-09-15T06:22:16.794Z,97018.56
2022-09-15T06:24:43.536Z,97020.90
2022-09-15T06:27:10.341Z,97028.95
2022-09-15T06:29:37.116Z,97047.09
2022-09-15T06:32:05.196Z,97051.02
2022-09-15T06:34:33.502Z,97038.12
2022-09-15T06:37:00.242Z,97058.20
2022-09-15T06:39:27.173Z,97062.77
2022-09-15T06:42:02.333Z,97071.54
2022-09-15T06:44:30.403Z,97077.38
2022-09-15T06:46:57.223Z,97081.70
2022-09-15T06:49:24.120Z,97093.96
2022-09-15T06:51:51.068Z,97103.35
2022-09-15T06:54:18.095Z,97110.23
2022-09-15T06:56:45.040Z,97114.80
2022-09-15T06:59:12.813Z,97120.21
2022-09-15T07:01:39.673Z,97122.56
2022-09-15T07:04:10.679Z,97132.76
2022-09-15T07:06:39.612Z,97142.69
2022-09-15T07:09:07.311Z,97154.67
2022-09-15T07:11:34.544Z,97164.18
2022-09-15T07:14:01.429Z,97175.52
2022-09-15T07:16:28.319Z,97193.41
2022-09-15T07:18:57.260Z,97209.88
2022-09-15T07:21:24.769Z,97216.67
2022-09-15T07:23:51.809Z,97223.67
2022-09-15T07:26:28.834Z,97223.05
2022-09-15T07:28:58.479Z,97224.32
2022-09-15T07:31:28.300Z,97225.45
2022-09-15T07:33:55.606Z,97228.70
2022-09-15T07:36:22.771Z,97239.94
2022-09-15T07:38:50.128Z,97249.80
2022-09-15T07:41:21.193Z,97259.40
2022-09-15T07:43:49.979Z,97270.56
2022-09-15T07:46:17.879Z,97277.35
2022-09-15T07:48:46.080Z,97282.08
2022-09-15T07:51:13.428Z,97287.41
2022-09-15T07:53:40.281Z,97289.58
2022-09-15T07:56:08.152Z,97294.65
2022-09-15T07:58:35.086Z,97291.09
2022-09-15T08:01:04.226Z,97290.36
2022-09-15T08:03:31.218Z,97293.61
2022-09-15T08:05:59.754Z,97289.02
2022-09-15T08:08:26.992Z,97288.42
2022-09-15T08:10:53.754Z,97285.91
2022-09-15T08:13:20.514Z,97290.83
2022-09-15T08:15:48.482Z,97300.01
2022-09-15T08:18:15.434Z,97304.84
2022-09-15T08:20:43.214Z,97312.62
2022-09-15T08:23:11.406Z,97317.25
2022-09-15T08:25:39.010Z,97323.52
2022-09-15T08:28:05.959Z,97324.08
2022-09-15T08:30:32.673Z,97332.31
2022-09-15T08:32:59.454Z,97338.23
2022-09-15T08:35:26.254Z,97348.06
2022-09-15T08:37:55.336Z,97355.48
2022-09-15T08:40:28.499Z,97360.80
2022-09-15T08:43:00.567Z,97361.49
2022-09-15T08:45:31.181Z,97362.27
2022-09-15T08:48:03.355Z,97366.17
2022-09-15T08:50:39.920Z,97366.77
2022-09-15T08:53:13.246Z,97367.64
2022-09-15T08:55:46.931Z,97376.55
2022-09-15T08:58:18.926Z,97379.52
2022-09-15T09:00:48.785Z,97378.68
2022-09-15T09:03:31.255Z,97377.39
2022-09-15T09:06:02.672Z,97378.80
2022-09-15T09:08:34.494Z,97381.59
2022-09-15T09:11:10.362Z,97383.16
2022-09-15T09:13:38.013Z,97385.46
2022-09-15T09:16:36.327Z,97383.02
2022-09-15T09:19:28.025Z,97373.53
2022-09-15T09:22:08.083Z,97374.98
2022-09-15T09:24:41.554Z,97374.75
2022-09-15T09:27:19.180Z,97379.80
2022-09-15T09:29:50.105Z,97381.59
2022-09-15T09:32:24.737Z,97379.39
2022-09-15T09:35:01.242Z,97379.66
2022-09-15T09:37:28.550Z,97381.51
2022-09-15T09:39:55.316Z,97382.26
2022-09-15T09:42:28.836Z,97384.16
2022-09-15T09:44:55.839Z,97385.73
2022-09-15T09:47:28.020Z,97383.50
2022-09-15T09:49:54.732Z,97386.80
2022-09-15T09:52:38.616Z,97382.70
2022-09-15T09:55:21.776Z,97386.42
2022-09-15T09:57:48.811Z,97383.88
2022-09-15T10:00:31.745Z,97375.73
2022-09-15T10:02:58.490Z,97371.56
2022-09-15T10:05:25.470Z,97367.34
2022-09-15T10:07:52.259Z,97369.55
2022-09-15T10:10:23.885Z,97370.42
2022-09-15T10:12:56.214Z,97368.94
2022-09-15T10:15:25.520Z,97363.64
2022-09-15T10:17:55.263Z,97354.08
2022-09-15T10:20:38.236Z,97356.77
2022-09-15T10:23:23.160Z,97358.20
2022-09-15T10:26:00.200Z,97355.80
2022-09-15T10:28:28.120Z,97361.67
2022-09-15T10:31:11.628Z,97356.23
2022-09-15T10:33:42.163Z,97359.89
2022-09-15T10:36:32.162Z,97362.48
2022-09-15T10:39:23.374Z,97360.64
2022-09-15T10:42:07.816Z,97356.97
2022-09-15T10:44:50.232Z,97356.61
2022-09-15T10:47:33.792Z,97356.02
2022-09-15T10:50:25.501Z,97356.10
2022-09-15T10:53:00.515Z,97355.50
2022-09-15T10:55:52.619Z,97357.33
2022-09-15T10:58:42.160Z,97354.17
2022-09-15T11:01:28.826Z,97351.27
2022-09-15T11:04:06.859Z,97348.64
2022-09-15T11:06:50.484Z,97347.50
2022-09-15T11:09:35.927Z,97347.92
2022-09-15T11:12:10.645Z,97341.66
2022-09-15T11:15:10.142Z,97343.41
2022-09-15T11:17:52.927Z,97342.85
2022-09-15T11:20:29.027Z,97337.11
2022-09-15T11:23:07.238Z,97335.15
2022-09-15T11:25:41.542Z,97330.70
2022-09-15T11:28:22.301Z,97325.77
2022-09-15T11:31:09.919Z,97321.58
2022-09-15T11:33:46.879Z,97322.84
2022-09-15T11:36:18.293Z,97320.66
2022-09-15T11:38:54.677Z,97321.11
2022-09-15T11:41:44.557Z,97318.73
2022-09-15T11:44:25.002Z,97317.64
2022-09-15T11:47:13.741Z,97320.98
2022-09-15T11:50:01.487Z,97310.01
2022-09-15T11:52:48.175Z,97307.96
2022-09-15T11:55:46.251Z,97306.70
2022-09-15T11:58:44.479Z,97299.79
2022-09-15T12:01:11.792Z,97301.98
2022-09-15T12:04:02.031Z,97300.39
2022-09-15T12:06:43.264Z,97297.23
2022-09-15T12:09:15.172Z,97297.16
2022-09-15T12:11:46.847Z,97296.92
2022-09-15T12:14:22.555Z,97292.10
2022-09-15T12:16:50.218Z,97291.31
2022-09-15T12:19:37.622Z,97285.61
2022-09-15T12:22:17.554Z,97288.96
2022-09-15T12:24:53.506Z,97287.25
2022-09-15T12:27:21.269Z,97285.95
2022-09-15T12:29:53.907Z,97284.39
2022-09-15T12:32:24.164Z,97284.76
2022-09-15T12:35:13.388Z,97288.66
2022-09-15T12:37:42.947Z,97291.65
2022-09-15T12:40:26.242Z,97292.08
2022-09-15T12:42:53.875Z,97295.17
2022-09-15T12:45:27.536Z,97293.17
2022-09-15T12:48:02.613Z,97289.33
2022-09-15T12:50:36.573Z,97285.96
2022-09-15T12:53:14.811Z,97285.04
2022-09-15T12:55:51.168Z,97283.27
2022-09-15T12:58:28.456Z,97282.08
2022-09-15T13:01:19.301Z,97278.32
2022-09-15T13:03:48.864Z,97280.55
2022-09-15T13:06:34.360Z,97284.29
2022-09-15T13:09:01.719Z,97290.05
2022-09-15T13:11:38.285Z,97282.63
2022-09-15T13:14:06.950Z,97278.73
2022-09-15T13:16:43.879Z,97286.04
2022-09-15T13:19:15.404Z,97282.86
2022-09-15T13:21:48.002Z,97283.57
2022-09-15T13:24:23.898Z,97277.19
2022-09-15T13:26:55.811Z,97281.63
2022-09-15T13:29:24.588Z,97277.88
2022-09-15T13:32:02.267Z,97270.64
2022-09-15T13:35:04.123Z,97270.98
2022-09-15T13:38:08.043Z,97266.67
2022-09-15T13:40:51.808Z,97262.23
2022-09-15T13:43:40.629Z,97266.35
2022-09-15T13:46:12.630Z,97261.46
2022-09-15T13:49:00.541Z,97267.41
2022-09-15T13:51:30.087Z,97270.45
2022-09-15T13:54:02.883Z,97272.96
2022-09-15T13:56:35.800Z,97271.82
2022-09-15T13:59:11.238Z,97268.52
2022-09-15T14:01:42.262Z,97276.91
2022-09-15T14:04:16.817Z,97273.57
2022-09-15T14:06:47.012Z,97270.81
2022-09-15T14:09:18.587Z,97264.87
2022-09-15T14:11:49.010Z,97258.64
2022-09-15T14:14:34.739Z,97265.39
2022-09-15T14:17:01.622Z,97275.05
2022-09-15T14:19:38.435Z,97276.46
2022-09-15T14:22:21.253Z,97280.88
2022-09-15T14:24:50.157Z,97278.31
2022-09-15T14:27:24.224Z,97277.84
2022-09-15T14:29:55.466Z,97280.59
2022-09-15T14:32:22.678Z,97272.80
2022-09-15T14:34:51.122Z,97265.73
2022-09-15T14:37:27.627Z,97266.41
2022-09-15T14:39:57.512Z,97257.26
2022-09-15T14:42:32.551Z,97249.92
2022-09-15T14:48:08.072Z,97251.02
2022-09-15T14:50:35.555Z,97249.89
2022-09-15T14:53:04.496Z,97250.20
2022-09-15T14:55:33.046Z,97251.48
2022-09-15T14:58:02.420Z,97250.23
2022-09-15T15:00:34.689Z,97242.45
2022-09-15T15:03:17.617Z,97229.44
2022-09-15T15:05:58.037Z,97228.36
2022-09-15T15:08:30.217Z,97224.33
2022-09-15T15:10:58.855Z,97216.18
2022-09-15T15:13:26.423Z,97214.16
2022-09-15T15:15:53.569Z,97214.40
2022-09-15T15:18:37.393Z,97205.52
2022-09-15T15:21:05.040Z,97209.38
2022-09-15T15:23:32.388Z,97220.12
2022-09-15T15:26:30.657Z,97217.90
2022-09-15T15:28:57.408Z,97221.02
2022-09-15T15:31:28.046Z,97229.15
2022-09-15T15:33:59.366Z,97233.10
2022-09-15T15:36:28.694Z,97234.55
2022-09-15T15:39:06.649Z,97234.12
2022-09-15T15:41:42.257Z,97245.23
2022-09-15T15:44:17.055Z,97258.30
2022-09-15T15:46:49.963Z,97258.39
2022-09-15T15:49:18.081Z,97262.31
2022-09-15T15:51:44.914Z,97261.88
2022-09-15T15:54:11.872Z,97271.49
2022-09-15T15:56:41.117Z,97269.23
2022-09-15T15:59:11.939Z,97271.95
2022-09-15T16:01:38.795Z,97276.05
2022-09-15T16:04:06.350Z,97278.86
2022-09-15T16:06:33.923Z,97281.77
2022-09-15T16:09:01.559Z,97288.59
2022-09-15T16:11:28.628Z,97293.74
2022-09-15T16:13:56.199Z,97288.82
2022-09-15T16:16:26.298Z,97293.02
2022-09-15T16:18:53.565Z,97292.91
2022-09-15T16:21:26.216Z,97288.18
2022-09-15T16:23:53.111Z,97284.55
2022-09-15T16:26:23.272Z,97284.81
2022-09-15T16:28:51.256Z,97289.36
2022-09-15T16:31:18.075Z,97294.67
2022-09-15T16:33:44.922Z,97299.55
2022-09-15T16:36:15.923Z,97303.34
2022-09-15T16:38:43.366Z,97304.60
2022-09-15T16:41:20.056Z,97314.98
2022-09-15T16:43:47.474Z,97319.20
2022-09-15T16:46:14.936Z,97324.80
2022-09-15T16:48:43.557Z,97318.64
2022-09-15T16:51:26.662Z,97308.48
2022-09-15T16:53:56.926Z,97305.41
2022-09-15T16:56:23.770Z,97309.19
2022-09-15T16:58:54.799Z,97310.52
2022-09-15T17:01:25.327Z,97321.51
2022-09-15T17:03:52.057Z,97321.89
2022-09-15T17:06:19.040Z,97324.96
2022-09-15T17:08:46.117Z,97326.42
2022-09-15T17:11:16.729Z,97328.54
2022-09-15T17:13:44.786Z,97328.61
2022-09-15T17:16:14.956Z,97323.69
2022-09-15T17:18:41.781Z,97325.34
2022-09-15T17:21:11.843Z,97319.02
2022-09-15T17:23:42.967Z,97318.58
2022-09-15T17:26:13.014Z,97316.36
2022-09-15T17:28:40.991Z,97316.40
2022-09-15T17:31:17.857Z,97320.61
2022-09-15T17:33:45.175Z,97320.45
2022-09-15T17:36:12.038Z,97314.52
2022-09-15T17:38:41.214Z,97311.00
2022-09-15T17:41:13.929Z,97314.20
2022-09-15T17:43:40.618Z,97327.20
2022-09-15T17:46:08.980Z,97331.59
2022-09-15T17:48:38.652Z,97330.50
2022-09-15T17:51:07.187Z,97331.23
2022-09-15T17:53:35.269Z,97327.89
2022-09-15T17:56:02.212Z,97317.63
2022-09-15T17:58:31.436Z,97318.61
2022-09-15T18:00:59.022Z,97313.34
2022-09-15T18:03:29.157Z,97316.20
2022-09-15T18:05:58.383Z,97326.40
2022-09-15T18:08:26.384Z,97338.02
2022-09-15T18:10:53.845Z,97342.06
2022-09-15T18:13:23.977Z,97343.25
2022-09-15T18:15:51.322Z,97339.29
2022-09-15T18:18:21.195Z,97337.44
2022-09-15T18:20:50.015Z,97336.84
2022-09-15T18:23:19.658Z,97345.69
2022-09-15T18:25:47.489Z,97345.87
2022-09-15T18:28:15.864Z,97339.63
2022-09-15T18:30:44.820Z,97341.56
2022-09-15T18:33:18.677Z,97340.14
2022-09-15T18:35:46.823Z,97343.80
2022-09-15T18:38:13.983Z,97344.83
2022-09-15T18:40:46.074Z,97340.88
2022-09-15T18:43:12.977Z,97338.10
2022-09-15T18:45:41.893Z,97341.52
2022-09-15T18:48:12.735Z,97341.98
2022-09-15T18:50:41.652Z,97348.20
2022-09-15T18:53:09.145Z,97353.46
2022-09-15T18:55:35.910Z,97348.55
2022-09-15T18:58:02.877Z,97355.17
2022-09-15T19:00:29.835Z,97356.65
2022-09-15T19:03:01.629Z,97358.20
2022-09-15T19:05:30.199Z,97359.98
2022-09-15T19:07:57.595Z,97363.86
2022-09-15T19:10:25.627Z,97368.33
2022-09-15T19:12:53.162Z,97374.23
2022-09-15T19:15:23.648Z,97375.01
2022-09-15T19:17:50.746Z,97370.87
2022-09-15T19:20:17.641Z,97365.30
2022-09-15T19:22:44.449Z,97369.43
2022-09-15T19:25:12.248Z,97372.77
2022-09-15T19:27:39.886Z,97375.13
2022-09-15T19:30:10.459Z,97374.82
2022-09-15T19:32:39.380Z,97372.84
2022-09-15T19:35:06.907Z,97381.58
2022-09-15T19:37:37.553Z,97387.27
2022-09-15T19:40:08.723Z,97382.29
2022-09-15T19:42:36.802Z,97378.95
2022-09-15T19:45:04.095Z,97382.94
2022-09-15T19:47:30.897Z,97385.89
2022-09-15T19:49:58.125Z,97393.45
2022-09-15T19:52:25.554Z,97393.77
2022-09-15T19:54:52.308Z,97391.27
2022-09-15T19:57:19.300Z,97395.69
2022-09-15T19:59:46.064Z,97391.55
2022-09-15T20:02:13.413Z,97397.66
2022-09-15T20:07:24.960Z,97410.11
2022-09-15T20:10:07.851Z,97404.95
2022-09-15T20:12:34.897Z,97406.70
2022-09-15T20:15:01.920Z,97404.59
2022-09-15T20:17:28.944Z,97403.36
2022-09-15T20:19:55.882Z,97402.92
2022-09-15T20:22:23.045Z,97398.86
2022-09-15T20:24:49.936Z,97394.60
2022-09-15T20:27:16.791Z,97397.48
2022-09-15T20:29:43.606Z,97396.02
2022-09-15T20:32:10.447Z,97393.79
2022-09-15T20:34:37.288Z,97403.05
2022-09-15T20:37:04.310Z,97402.97
2022-09-15T20:39:31.110Z,97401.64
2022-09-15T20:41:58.162Z,97397.74
2022-09-15T20:44:25.083Z,97401.69
2022-09-15T20:46:52.638Z,97397.16
2022-09-15T20:49:20.074Z,97397.70
2022-09-15T20:51:46.995Z,97403.44
2022-09-15T20:54:13.958Z,97408.00
2022-09-15T20:56:41.075Z,97408.64
2022-09-15T20:59:10.403Z,97417.17
2022-09-15T21:01:38.948Z,97415.09
2022-09-15T21:04:08.246Z,97418.84
2022-09-15T21:06:35.986Z,97422.82
2022-09-15T21:09:04.364Z,97429.40
2022-09-15T21:11:31.674Z,97433.06
2022-09-15T21:13:58.953Z,97440.21
2022-09-15T21:16:28.255Z,97441.98
2022-09-15T21:18:57.074Z,97441.21
2022-09-15T21:21:26.333Z,97439.89
2022-09-15T21:23:55.663Z,97448.21
2022-09-15T21:26:24.994Z,97441.50
2022-09-15T21:28:51.906Z,97443.23
2022-09-15T21:31:21.331Z,97450.19
2022-09-15T21:33:49.296Z,97460.21
2022-09-15T21:36:21.441Z,97461.75
2022-09-15T21:38:49.815Z,97461.84
2022-09-15T21:41:18.915Z,97465.21
2022-09-15T21:43:46.771Z,97462.32
2022-09-15T21:46:16.996Z,97460.29
2022-09-15T21:48:46.236Z,97462.80
2022-09-15T21:51:14.552Z,97467.19
2022-09-15T21:53:43.181Z,97472.92
2022-09-15T21:56:12.061Z,97475.54
2022-09-15T21:58:42.862Z,97475.56
2022-09-15T22:01:13.293Z,97477.77
2022-09-15T22:03:42.333Z,97478.73
2022-09-15T22:06:11.574Z,97479.45
2022-09-15T22:08:39.950Z,97483.96
2022-09-15T22:11:07.991Z,97486.94
2022-09-15T22:13:39.177Z,97488.80
2022-09-15T22:16:09.059Z,97486.97
2022-09-15T22:18:37.185Z,97489.71
2022-09-15T22:21:05.624Z,97495.73
2022-09-15T22:23:32.642Z,97499.75
2022-09-15T22:26:02.461Z,97501.73
2022-09-15T22:28:29.503Z,97508.92
2022-09-15T22:30:58.536Z,97512.52
2022-09-15T22:33:26.025Z,97509.98
2022-09-15T22:35:52.859Z,97508.95
2022-09-15T22:38:19.818Z,97508.08
2022-09-15T22:40:46.676Z,97507.73
2022-09-15T22:43:13.625Z,97503.77
2022-09-15T22:45:40.923Z,97503.19
2022-09-15T22:48:07.965Z,97509.02
2022-09-15T22:50:34.967Z,97509.88
2022-09-15T22:53:01.937Z,97508.69
2022-09-15T22:55:30.963Z,97510.12
2022-09-15T22:57:58.205Z,97510.54
2022-09-15T23:00:25.268Z,97513.60
2022-09-15T23:02:52.733Z,97516.65
2022-09-15T23:05:19.774Z,97520.35
2022-09-15T23:07:46.493Z,97519.02
2022-09-15T23:10:13.294Z,97524.21
2022-09-15T23:12:40.124Z,97524.98
2022-09-15T23:15:07.539Z,97524.70
2022-09-15T23:17:34.893Z,97523.95
2022-09-15T23:20:01.978Z,97522.21
2022-09-15T23:22:28.757Z,97521.79
2022-09-15T23:24:55.464Z,97521.10
2022-09-15T23:27:22.171Z,97519.41
2022-09-15T23:29:48.887Z,97523.91
2022-09-15T23:32:15.840Z,97526.71
2022-09-15T23:34:42.607Z,97532.30
2022-09-15T23:37:09.330Z,97533.67
2022-09-15T23:39:36.120Z,97536.57
2022-09-15T23:42:02.983Z,97538.73
2022-09-15T23:44:29.727Z,97540.62
2022-09-15T23:46:56.495Z,97544.18
2022-09-15T23:49:23.410Z,97548.59
2022-09-15T23:51:50.097Z,97549.84
2022-09-15T23:54:16.894Z,97547.92
2022-09-15T23:56:43.702Z,97550.25
2022-09-15T23:59:10.405Z,97551.23
